Koyo — JD2279 — position and weather

sailwx.info

Track history (hours):
 
Tides and Currents Weather Stations Pressure Air Temp Water Temp Dewpoint Dewpoint Depression Visibility Wind Speed Wind Dir Waves Ship Positions

Koyo

Last reported at 2016-Feb-08 06:26 UTC. Time now 2016-Feb-09 15:50 UTC.
Position N 34°35' E 134°52'.

Length 80 m; draft 3.7 m.

Type: Cargo ship. MMSI: 431301812.

Date/timePositionNaut miles runAvg speedWind from/ knotsBaromVisibWave heightAir tempDewpointWater temp
2016-Feb-08 06:26N 34°35' E 134°52'910.1
2016-Feb-08 05:33N 34°36' E 135°03'1111.5
2016-Feb-08 04:33N 34°38' E 135°16'7 6.0
2016-Feb-08 03:23N 34°38' E 135°25'0 0.0
2016-Feb-08 02:29N 34°38' E 135°25'6 6.7
2016-Feb-08 01:33N 34°39' E 135°17'3 2.5
2016-Feb-08 00:32N 34°39' E 135°15'0 0.0
2016-Feb-07 23:32N 34°39' E 135°15'1 0.8
2016-Feb-07 22:28N 34°39' E 135°15'0 0.0
2016-Feb-07 21:28N 34°39' E 135°15'0 0.0
2016-Feb-07 20:22N 34°39' E 135°15'0 0.1
2016-Feb-07 19:26N 34°39' E 135°15'1011.6
2016-Feb-07 18:33N 34°29' E 135°10'1211.8
2016-Feb-07 17:31N 34°19' E 135°01'  
2016-Feb-05 04:33N 34°11' E 134°57'1514.2
2016-Feb-05 03:32N 34°24' E 135°02'1413.8
2016-Feb-05 02:33N 34°35' E 135°12'5 4.3
2016-Feb-05 01:29N 34°40' E 135°14'0 0.0
2016-Feb-05 00:29N 34°40' E 135°14'0 0.0
2016-Feb-04 23:29N 34°40' E 135°14'1 1.2
2016-Feb-04 22:33N 34°38' E 135°15'0 0.0
2016-Feb-04 21:03N 34°38' E 135°15'510.0
2016-Feb-04 20:33N 34°36' E 135°10'9 8.4
2016-Feb-04 19:29N 34°37' E 134°59'7 0.2
2016-Feb-03 05:31N 34°35' E 134°51'1111.2
2016-Feb-03 04:33N 34°36' E 135°05'1212.1
2016-Feb-03 03:33N 34°38' E 135°19'5 4.7
2016-Feb-03 02:30N 34°38' E 135°25'4 4.0
2016-Feb-03 01:33N 34°39' E 135°21'5 4.5
2016-Feb-03 00:24N 34°39' E 135°15'0 0.0
2016-Feb-02 23:24N 34°39' E 135°15'3 3.1
2016-Feb-02 22:32N 34°37' E 135°13'1111.3
2016-Feb-02 21:33N 34°37' E 134°59'9 0.2
2016-Feb-01 03:30N 34°34' E 134°49'1111.5
2016-Feb-01 02:33N 34°37' E 135°02'10 9.9
2016-Feb-01 01:33N 34°37' E 135°14'2 2.0
2016-Feb-01 00:25N 34°40' E 135°14'0 0.0
2016-Jan-31 23:31N 34°40' E 135°14'2 2.3
2016-Jan-31 22:30N 34°41' E 135°12'0 0.0
2016-Jan-31 21:24N 34°41' E 135°12'0 0.0
2016-Jan-31 20:30N 34°41' E 135°12'0 0.0
2016-Jan-31 19:30N 34°41' E 135°12'0 0.0
2016-Jan-31 18:18N 34°41' E 135°12'0 0.0
2016-Jan-31 17:18N 34°41' E 135°12'0 0.0
2016-Jan-31 16:30N 34°41' E 135°12'0 0.0
2016-Jan-31 15:30N 34°41' E 135°12'0 0.0
2016-Jan-31 14:30N 34°41' E 135°12'0 0.0
2016-Jan-31 13:30N 34°41' E 135°12'0 0.0
2016-Jan-31 12:30N 34°41' E 135°12'0 0.0
2016-Jan-31 11:30N 34°41' E 135°12'0 0.0
2016-Jan-31 10:24N 34°41' E 135°12'0 0.1
2016-Jan-31 09:30N 34°41' E 135°12'0 0.0
2016-Jan-31 08:30N 34°41' E 135°12'0 0.0
2016-Jan-31 07:30N 34°41' E 135°12'0 0.0
2016-Jan-31 06:30N 34°41' E 135°12'0 0.0
2016-Jan-31 05:30N 34°41' E 135°12'0 0.0
2016-Jan-31 04:30N 34°41' E 135°12'0 0.0
2016-Jan-31 03:30N 34°41' E 135°12'0 0.0
2016-Jan-31 02:30N 34°41' E 135°12'0 0.0
2016-Jan-31 01:24N 34°41' E 135°12'0 0.0
2016-Jan-31 00:30N 34°41' E 135°12'0 0.0
2016-Jan-30 23:30N 34°41' E 135°12'0 0.0
2016-Jan-30 22:30N 34°41' E 135°12'0 0.0
2016-Jan-30 21:30N 34°41' E 135°12'0 0.0
2016-Jan-30 20:30N 34°41' E 135°12'0 0.0
2016-Jan-30 19:30N 34°41' E 135°12'0 0.0
2016-Jan-30 18:30N 34°41' E 135°12'0 0.0
2016-Jan-30 17:30N 34°41' E 135°12'0 0.0
2016-Jan-30 16:30N 34°41' E 135°12'0 0.0
2016-Jan-30 15:06N 34°41' E 135°12'0 0.0
2016-Jan-30 14:30N 34°41' E 135°12'0 0.0
2016-Jan-30 13:30N 34°41' E 135°12'0 0.0
2016-Jan-30 12:30N 34°41' E 135°12'2 2.2
2016-Jan-30 11:33N 34°40' E 135°15'1211.7
2016-Jan-30 10:33N 34°29' E 135°11'1311.6
2016-Jan-30 09:26N 34°19' E 135°01'910.7
2016-Jan-30 08:34N 34°12' E 134°54'24 1.5
2016-Jan-29 16:33N 34°36' E 134°54'1312.6
2016-Jan-29 15:33N 34°36' E 135°09'5 4.8
2016-Jan-29 14:27N 34°40' E 135°14'0 0.0
2016-Jan-29 13:33N 34°40' E 135°14'0 0.0
2016-Jan-29 12:33N 34°40' E 135°14'9 8.0
2016-Jan-29 11:25N 34°38' E 135°25'3 3.7
2016-Jan-29 10:33N 34°39' E 135°21'6 5.4
2016-Jan-29 09:29N 34°40' E 135°14'0 0.0
2016-Jan-29 08:29N 34°40' E 135°14'1 1.0
2016-Jan-29 07:33N 34°39' E 135°15'1 0.5
2016-Jan-29 06:29N 34°38' E 135°15'  
Track history (hours):
 
Tides and Currents Weather Stations Pressure Air Temp Water Temp Dewpoint Dewpoint Depression Visibility Wind Speed Wind Dir Waves Ship Positions

Koyo

Last reported at 2016-Feb-08 06:26 UTC. Time now 2016-Feb-09 15:50 UTC.
Position N 34°35' E 134°52'.

Length 80 m; draft 3.7 m.

Type: Cargo ship. MMSI: 431301812.

Date/timePositionNaut miles runAvg speedWind from/ knotsBaromVisibWave heightAir tempDewpointWater temp
2016-Feb-08 06:26N 34°35' E 134°52'910.1
2016-Feb-08 05:33N 34°36' E 135°03'1111.5
2016-Feb-08 04:33N 34°38' E 135°16'7 6.0
2016-Feb-08 03:23N 34°38' E 135°25'0 0.0
2016-Feb-08 02:29N 34°38' E 135°25'6 6.7
2016-Feb-08 01:33N 34°39' E 135°17'3 2.5
2016-Feb-08 00:32N 34°39' E 135°15'0 0.0
2016-Feb-07 23:32N 34°39' E 135°15'1 0.8
2016-Feb-07 22:28N 34°39' E 135°15'0 0.0
2016-Feb-07 21:28N 34°39' E 135°15'0 0.0
2016-Feb-07 20:22N 34°39' E 135°15'0 0.1
2016-Feb-07 19:26N 34°39' E 135°15'1011.6
2016-Feb-07 18:33N 34°29' E 135°10'1211.8
2016-Feb-07 17:31N 34°19' E 135°01'  
2016-Feb-05 04:33N 34°11' E 134°57'1514.2
2016-Feb-05 03:32N 34°24' E 135°02'1413.8
2016-Feb-05 02:33N 34°35' E 135°12'5 4.3
2016-Feb-05 01:29N 34°40' E 135°14'0 0.0
2016-Feb-05 00:29N 34°40' E 135°14'0 0.0
2016-Feb-04 23:29N 34°40' E 135°14'1 1.2
2016-Feb-04 22:33N 34°38' E 135°15'0 0.0
2016-Feb-04 21:03N 34°38' E 135°15'510.0
2016-Feb-04 20:33N 34°36' E 135°10'9 8.4
2016-Feb-04 19:29N 34°37' E 134°59'7 0.2
2016-Feb-03 05:31N 34°35' E 134°51'1111.2
2016-Feb-03 04:33N 34°36' E 135°05'1212.1
2016-Feb-03 03:33N 34°38' E 135°19'5 4.7
2016-Feb-03 02:30N 34°38' E 135°25'4 4.0
2016-Feb-03 01:33N 34°39' E 135°21'5 4.5
2016-Feb-03 00:24N 34°39' E 135°15'0 0.0
2016-Feb-02 23:24N 34°39' E 135°15'3 3.1
2016-Feb-02 22:32N 34°37' E 135°13'1111.3
2016-Feb-02 21:33N 34°37' E 134°59'9 0.2
2016-Feb-01 03:30N 34°34' E 134°49'1111.5
2016-Feb-01 02:33N 34°37' E 135°02'10 9.9
2016-Feb-01 01:33N 34°37' E 135°14'2 2.0
2016-Feb-01 00:25N 34°40' E 135°14'0 0.0
2016-Jan-31 23:31N 34°40' E 135°14'2 2.3
2016-Jan-31 22:30N 34°41' E 135°12'0 0.0
2016-Jan-31 21:24N 34°41' E 135°12'0 0.0
2016-Jan-31 20:30N 34°41' E 135°12'0 0.0
2016-Jan-31 19:30N 34°41' E 135°12'0 0.0
2016-Jan-31 18:18N 34°41' E 135°12'0 0.0
2016-Jan-31 17:18N 34°41' E 135°12'0 0.0
2016-Jan-31 16:30N 34°41' E 135°12'0 0.0
2016-Jan-31 15:30N 34°41' E 135°12'0 0.0
2016-Jan-31 14:30N 34°41' E 135°12'0 0.0
2016-Jan-31 13:30N 34°41' E 135°12'0 0.0
2016-Jan-31 12:30N 34°41' E 135°12'0 0.0
2016-Jan-31 11:30N 34°41' E 135°12'0 0.0
2016-Jan-31 10:24N 34°41' E 135°12'0 0.1
2016-Jan-31 09:30N 34°41' E 135°12'0 0.0
2016-Jan-31 08:30N 34°41' E 135°12'0 0.0
2016-Jan-31 07:30N 34°41' E 135°12'0 0.0
2016-Jan-31 06:30N 34°41' E 135°12'0 0.0
2016-Jan-31 05:30N 34°41' E 135°12'0 0.0
2016-Jan-31 04:30N 34°41' E 135°12'0 0.0
2016-Jan-31 03:30N 34°41' E 135°12'0 0.0
2016-Jan-31 02:30N 34°41' E 135°12'0 0.0
2016-Jan-31 01:24N 34°41' E 135°12'0 0.0
2016-Jan-31 00:30N 34°41' E 135°12'0 0.0
2016-Jan-30 23:30N 34°41' E 135°12'0 0.0
2016-Jan-30 22:30N 34°41' E 135°12'0 0.0
2016-Jan-30 21:30N 34°41' E 135°12'0 0.0
2016-Jan-30 20:30N 34°41' E 135°12'0 0.0
2016-Jan-30 19:30N 34°41' E 135°12'0 0.0
2016-Jan-30 18:30N 34°41' E 135°12'0 0.0
2016-Jan-30 17:30N 34°41' E 135°12'0 0.0
2016-Jan-30 16:30N 34°41' E 135°12'0 0.0
2016-Jan-30 15:06N 34°41' E 135°12'0 0.0
2016-Jan-30 14:30N 34°41' E 135°12'0 0.0
2016-Jan-30 13:30N 34°41' E 135°12'0 0.0
2016-Jan-30 12:30N 34°41' E 135°12'2 2.2
2016-Jan-30 11:33N 34°40' E 135°15'1211.7
2016-Jan-30 10:33N 34°29' E 135°11'1311.6
2016-Jan-30 09:26N 34°19' E 135°01'910.7
2016-Jan-30 08:34N 34°12' E 134°54'24 1.5
2016-Jan-29 16:33N 34°36' E 134°54'1312.6
2016-Jan-29 15:33N 34°36' E 135°09'5 4.8
2016-Jan-29 14:27N 34°40' E 135°14'0 0.0
2016-Jan-29 13:33N 34°40' E 135°14'0 0.0
2016-Jan-29 12:33N 34°40' E 135°14'9 8.0
2016-Jan-29 11:25N 34°38' E 135°25'3 3.7
2016-Jan-29 10:33N 34°39' E 135°21'6 5.4
2016-Jan-29 09:29N 34°40' E 135°14'0 0.0
2016-Jan-29 08:29N 34°40' E 135°14'1 1.0
2016-Jan-29 07:33N 34°39' E 135°15'1 0.5
2016-Jan-29 06:29N 34°38' E 135°15'  

Dump ship's entire track history